Nanuq — WDE6894 — position and weather

sailwx.info

Track history (hours):
 
Tides and Currents Weather Stations Pressure Air Temp Water Temp Dewpoint Dewpoint Depression Visibility Wind Speed Wind Dir Waves Ship Positions

Nanuq

Owner: Doncaster Mr, Glenn W, Raleigh, NC. More information available from US FCC via Universal Licensing System and Coast Guard Vessel Documentation Center.

Last reported at 2015-Aug-23 20:19 UTC. Time now 2015-Aug-28 02:15 UTC.
Position N 38°36' W 074°57'.

Length 13 m.

Type: Sailing vessel. MMSI: 367386290.

Date/timePositionNaut miles runAvg speedWind from/ knotsBaromVisibWave heightAir tempDewpointWater temp
2015-Aug-23 20:19N 38°36' W 074°57'6 7.5
2015-Aug-23 19:33N 38°42' W 074°54'97 7.4
2015-Aug-23 06:32N 39°49' W 073°25'8 7.8
2015-Aug-23 05:33N 39°55' W 073°18'9 7.6
2015-Aug-23 04:18N 40°01' W 073°09'6 7.3
2015-Aug-23 03:30N 40°05' W 073°03'28 7.0
2015-Aug-22 23:29N 40°26' W 072°38'9 7.1
2015-Aug-22 22:15N 40°32' W 072°30'5 6.9
2015-Aug-22 21:31N 40°36' W 072°26'7 7.0
2015-Aug-22 20:33N 40°41' W 072°19'7 6.9
2015-Aug-22 19:34N 40°46' W 072°13'8 7.7
2015-Aug-22 18:33N 40°51' W 072°05'8 7.9
2015-Aug-22 17:33N 40°56' W 071°57'8 7.8
2015-Aug-22 16:33N 41°00' W 071°49'8 8.2
2015-Aug-22 15:33N 41°05' W 071°40'8 8.1
2015-Aug-22 14:33N 41°10' W 071°31'8 7.7
2015-Aug-22 13:33N 41°16' W 071°25'7 7.4
2015-Aug-22 12:33N 41°24' W 071°23'6 5.0
2015-Aug-22 11:19N 41°29' W 071°19'0 0.0
2015-Aug-22 10:16N 41°29' W 071°19'0 0.0
2015-Aug-22 09:25N 41°29' W 071°19'0 0.0
2015-Aug-22 08:31N 41°29' W 071°19'0 0.0
2015-Aug-22 07:31N 41°29' W 071°19'0 0.0
2015-Aug-22 06:28N 41°29' W 071°19'0 0.0
2015-Aug-22 05:32N 41°29' W 071°19'0 0.0
2015-Aug-22 02:32N 41°29' W 071°19'0 0.0
2015-Aug-22 01:32N 41°29' W 071°19'0 0.0
2015-Aug-22 00:26N 41°29' W 071°19'0 0.0
2015-Aug-21 18:14N 41°29' W 071°19'0 0.0
2015-Aug-21 17:29N 41°29' W 071°19'0 0.0
2015-Aug-20 16:33N 41°29' W 071°19'5 4.8
2015-Aug-20 15:31N 41°24' W 071°20'5 5.7
2015-Aug-20 14:33N 41°25' W 071°13'7 6.7
2015-Aug-20 13:33N 41°27' W 071°04'71 1.8
2015-Aug-18 21:10N 42°36' W 070°40'  
Track history (hours):
 
Tides and Currents Weather Stations Pressure Air Temp Water Temp Dewpoint Dewpoint Depression Visibility Wind Speed Wind Dir Waves Ship Positions

Nanuq

Owner: Doncaster Mr, Glenn W, Raleigh, NC. More information available from US FCC via Universal Licensing System and Coast Guard Vessel Documentation Center.

Last reported at 2015-Aug-23 20:19 UTC. Time now 2015-Aug-28 02:15 UTC.
Position N 38°36' W 074°57'.

Length 13 m.

Type: Sailing vessel. MMSI: 367386290.

Date/timePositionNaut miles runAvg speedWind from/ knotsBaromVisibWave heightAir tempDewpointWater temp
2015-Aug-23 20:19N 38°36' W 074°57'6 7.5
2015-Aug-23 19:33N 38°42' W 074°54'97 7.4
2015-Aug-23 06:32N 39°49' W 073°25'8 7.8
2015-Aug-23 05:33N 39°55' W 073°18'9 7.6
2015-Aug-23 04:18N 40°01' W 073°09'6 7.3
2015-Aug-23 03:30N 40°05' W 073°03'28 7.0
2015-Aug-22 23:29N 40°26' W 072°38'9 7.1
2015-Aug-22 22:15N 40°32' W 072°30'5 6.9
2015-Aug-22 21:31N 40°36' W 072°26'7 7.0
2015-Aug-22 20:33N 40°41' W 072°19'7 6.9
2015-Aug-22 19:34N 40°46' W 072°13'8 7.7
2015-Aug-22 18:33N 40°51' W 072°05'8 7.9
2015-Aug-22 17:33N 40°56' W 071°57'8 7.8
2015-Aug-22 16:33N 41°00' W 071°49'8 8.2
2015-Aug-22 15:33N 41°05' W 071°40'8 8.1
2015-Aug-22 14:33N 41°10' W 071°31'8 7.7
2015-Aug-22 13:33N 41°16' W 071°25'7 7.4
2015-Aug-22 12:33N 41°24' W 071°23'6 5.0
2015-Aug-22 11:19N 41°29' W 071°19'0 0.0
2015-Aug-22 10:16N 41°29' W 071°19'0 0.0
2015-Aug-22 09:25N 41°29' W 071°19'0 0.0
2015-Aug-22 08:31N 41°29' W 071°19'0 0.0
2015-Aug-22 07:31N 41°29' W 071°19'0 0.0
2015-Aug-22 06:28N 41°29' W 071°19'0 0.0
2015-Aug-22 05:32N 41°29' W 071°19'0 0.0
2015-Aug-22 02:32N 41°29' W 071°19'0 0.0
2015-Aug-22 01:32N 41°29' W 071°19'0 0.0
2015-Aug-22 00:26N 41°29' W 071°19'0 0.0
2015-Aug-21 18:14N 41°29' W 071°19'0 0.0
2015-Aug-21 17:29N 41°29' W 071°19'0 0.0
2015-Aug-20 16:33N 41°29' W 071°19'5 4.8
2015-Aug-20 15:31N 41°24' W 071°20'5 5.7
2015-Aug-20 14:33N 41°25' W 071°13'7 6.7
2015-Aug-20 13:33N 41°27' W 071°04'71 1.8
2015-Aug-18 21:10N 42°36' W 070°40'  

Dump ship's entire track history